首页
METAR-TAF:

METAR-TAF

机场 :

布赖顿, 英格兰

纬度: 50-50N, 经度: 000-17W, 海拔: 2米

当前天气观测

该预报发布于44分钟前的18:20 UTC
风速18节,风向西南,有时为28节阵风
温度 9°C
湿度 87%
气压 1017 hPa
能見度: 7000
散云层高于1900英尺
多云层高于3300英尺
阵雨

METAR: EGKA 181820Z 23018G28KT 7000 SHRA SCT019 BKN033 09/07 Q1017

时间: 19:04 (19:04 UTC)

预报

该预报发布于2小时和3分钟前的17:01 UTC
预报有效从18日的 18点(UTC)到 18日的 20点(UTC)
风速15节,风向西转西南
能见度10公里或以上
少量云层高于2500英尺
短暂存在
从 18日的 18点(UTC)到 18日的 20点(UTC)
风速18节,风向西南,有时为35节阵风
能見度: 3000
多云层高于1400英尺, 积雨云.
大阵雨

TAF: EGKA 181701Z 1818/1820 25015KT 9999 FEW025 TEMPO 1818/1820 23018G35KT 3000 +SHRA BKN014CB

超过4000个机场的气象观测和天气预报(METAR&TAF报告)。

可查询的气象台以黄色和红色小点在地图上表示。

将鼠标移到小点上方,可查看气象台名称。

然后点击查看天气观测和预报。

如需切换地图:点击带黑十字的绿色按钮放大地图;点击带横线的绿色按钮缩小地图;或者点击绿色箭头查看邻近地区的地图。


METAR-TAF: